Time;durP1;ratioP1;P1;durP2;ratioP2;P2;SDS_P1;SDS_P2;PMS_P1;PMS_P2;Temp;Humidity;BMP_temperature;BMP_pressure;BME280_temperature;BME280_humidity;BME280_pressure;Samples;Min_cycle;Max_cycle;Signal;HPM_P1;HPM_P2
2023/04/06 00:00:48;;;;;;;19.70;9.00;;;;;;;0.10;95.94;101706.38;4989851;28;20046;-86
2023/04/06 00:03:14;;;;;;;18.30;9.13;;;;;;;0.11;96.06;101696.63;4991667;28;20041;-86
2023/04/06 00:05:39;;;;;;;19.38;9.70;;;;;;;0.05;95.44;101687.59;4973516;28;20034;-86
2023/04/06 00:08:05;;;;;;;17.00;9.00;;;;;;;0.06;95.30;101689.22;4989722;28;20022;-86
2023/04/06 00:10:31;;;;;;;19.88;9.48;;;;;;;0.04;96.13;101688.56;4987536;28;20426;-86
2023/04/06 00:12:58;;;;;;;21.83;9.43;;;;;;;0.05;96.04;101679.69;4990285;28;20093;-86
2023/04/06 00:15:23;;;;;;;19.25;8.88;;;;;;;0.10;95.63;101692.34;4990568;28;20105;-86
2023/04/06 00:17:49;;;;;;;18.38;8.80;;;;;;;0.08;96.11;101681.97;4990248;28;20512;-86
2023/04/06 00:20:15;;;;;;;16.27;8.87;;;;;;;0.06;95.25;101676.06;4979735;28;20031;-86
2023/04/06 00:22:40;;;;;;;18.10;9.18;;;;;;;0.11;94.53;101684.28;4986670;28;20026;-87
2023/04/06 00:25:06;;;;;;;14.20;8.33;;;;;;;0.09;94.79;101678.34;4990771;28;20081;-86
2023/04/06 00:27:31;;;;;;;17.25;9.05;;;;;;;0.16;94.88;101677.69;4977989;28;20042;-86
2023/04/06 00:29:57;;;;;;;20.53;9.40;;;;;;;0.23;94.89;101671.59;4991896;28;20486;-85
2023/04/06 00:32:22;;;;;;;17.47;8.70;;;;;;;0.20;93.60;101656.09;4995003;28;20022;-86
2023/04/06 00:34:47;;;;;;;21.43;8.73;;;;;;;0.17;92.76;101648.53;4994652;28;20033;-86
2023/04/06 00:37:12;;;;;;;16.57;8.57;;;;;;;0.19;92.86;101650.97;4994563;28;20390;-86
2023/04/06 00:39:38;;;;;;;16.50;8.70;;;;;;;0.30;93.56;101658.56;4994163;28;20034;-86
2023/04/06 00:42:14;;;;;;;15.80;8.25;;;;;;;0.18;92.76;101644.91;4993521;28;20113;-86
2023/04/06 00:44:42;;;;;;;16.02;8.77;;;;;;;0.29;93.84;101649.81;4992440;28;20030;-85
2023/04/06 00:47:07;;;;;;;19.63;8.63;;;;;;;0.42;93.84;101665.09;4993187;28;20029;-85
2023/04/06 00:49:33;;;;;;;14.83;8.43;;;;;;;0.48;93.29;101663.59;4992017;28;20309;-85
2023/04/06 00:51:59;;;;;;;15.73;7.97;;;;;;;0.55;91.80;101653.19;4992686;28;20508;-85
2023/04/06 00:54:25;;;;;;;15.57;7.97;;;;;;;0.50;91.29;101637.88;4992914;28;20018;-85
2023/04/06 00:56:50;;;;;;;13.50;7.68;;;;;;;0.51;90.52;101641.34;4992102;28;20092;-85
2023/04/06 00:59:15;;;;;;;15.40;8.27;;;;;;;0.45;89.98;101638.38;4993827;28;20117;-85
2023/04/06 01:01:41;;;;;;;16.63;7.70;;;;;;;0.46;90.36;101628.66;4992021;28;20035;-85
2023/04/06 01:04:06;;;;;;;18.43;7.37;;;;;;;0.41;90.20;101626.53;4993291;28;20030;-85
2023/04/06 01:06:31;;;;;;;17.53;8.43;;;;;;;0.55;90.37;101637.34;4993430;28;20061;-85
2023/04/06 01:08:57;;;;;;;18.00;7.90;;;;;;;0.62;89.39;101634.88;4992654;28;20022;-85
2023/04/06 01:11:22;;;;;;;15.67;7.80;;;;;;;0.66;89.47;101629.06;4992490;28;20030;-85
2023/04/06 01:13:47;;;;;;;13.70;7.80;;;;;;;0.69;89.49;101623.47;4992694;28;20030;-85
2023/04/06 01:16:13;;;;;;;15.00;7.73;;;;;;;0.71;90.18;101623.28;4988606;28;20406;-85
2023/04/06 01:18:39;;;;;;;16.65;8.68;;;;;;;0.75;89.75;101625.41;4991421;28;20041;-85
2023/04/06 01:21:04;;;;;;;17.90;8.43;;;;;;;0.74;90.49;101631.66;4993147;28;20396;-84
2023/04/06 01:23:29;;;;;;;15.70;8.63;;;;;;;0.75;90.65;101628.03;4994184;28;20030;-85
2023/04/06 01:25:55;;;;;;;20.30;8.32;;;;;;;0.71;90.45;101621.47;4993993;28;20030;-85
2023/04/06 01:28:20;;;;;;;16.43;8.30;;;;;;;0.73;90.69;101619.47;4993438;28;20031;-84
2023/04/06 01:30:47;;;;;;;17.33;8.73;;;;;;;0.67;91.44;101622.81;4993521;28;20526;-85
2023/04/06 01:33:12;;;;;;;21.40;8.73;;;;;;;0.63;91.37;101605.69;4993906;28;20027;-84
2023/04/06 01:35:37;;;;;;;16.60;8.40;;;;;;;0.69;91.29;101612.06;4992107;28;20030;-85
2023/04/06 01:38:04;;;;;;;20.87;8.53;;;;;;;0.78;92.18;101610.22;4993045;28;20038;-84
2023/04/06 01:40:29;;;;;;;18.60;9.00;;;;;;;0.76;91.37;101610.41;4992758;28;20030;-85
2023/04/06 01:42:55;;;;;;;19.93;9.10;;;;;;;0.84;92.03;101614.81;4992318;28;20030;-85
2023/04/06 01:45:20;;;;;;;16.90;8.93;;;;;;;0.84;92.54;101609.53;4993605;28;20022;-85
2023/04/06 01:47:46;;;;;;;17.23;8.90;;;;;;;0.88;92.25;101608.19;4974301;28;20030;-84
2023/04/06 01:50:11;;;;;;;20.60;9.33;;;;;;;0.89;92.80;101601.94;4992933;28;20062;-85
2023/04/06 01:52:37;;;;;;;20.53;9.67;;;;;;;1.00;93.06;101603.34;4991221;28;20026;-84
2023/04/06 01:55:03;;;;;;;18.00;9.32;;;;;;;1.02;92.43;101602.16;4993060;28;20031;-84
2023/04/06 01:57:28;;;;;;;21.08;9.73;;;;;;;1.11;92.66;101597.66;4992847;28;20030;-85
2023/04/06 01:59:53;;;;;;;20.80;9.93;;;;;;;1.18;92.90;101592.47;4992870;28;20486;-84
2023/04/06 02:02:19;;;;;;;22.17;10.03;;;;;;;1.28;91.90;101590.41;4993123;28;20552;-85
2023/04/06 02:04:44;;;;;;;19.77;10.20;;;;;;;1.37;90.86;101583.25;4992533;28;20029;-85
2023/04/06 02:07:10;;;;;;;18.47;9.60;;;;;;;1.46;90.79;101584.03;4992513;28;20320;-85
2023/04/06 02:09:35;;;;;;;22.17;10.93;;;;;;;1.48;90.52;101576.72;4990329;28;20030;-85
2023/04/06 02:12:01;;;;;;;24.07;10.57;;;;;;;1.62;90.09;101577.75;4993266;28;20025;-85
2023/04/06 02:14:26;;;;;;;22.48;10.25;;;;;;;1.63;89.78;101576.75;4992000;28;20023;-85
2023/04/06 02:16:52;;;;;;;22.30;10.70;;;;;;;1.62;89.55;101565.38;4992525;28;20042;-85
2023/04/06 02:19:17;;;;;;;24.33;10.43;;;;;;;1.74;89.20;101573.66;4992477;28;20117;-85
2023/04/06 02:21:42;;;;;;;20.00;10.20;;;;;;;1.74;89.01;101568.38;4990663;28;20050;-85
2023/04/06 02:24:07;;;;;;;23.03;11.27;;;;;;;1.77;88.83;101561.94;4992575;28;20556;-84
2023/04/06 02:26:33;;;;;;;21.10;11.10;;;;;;;1.83;89.15;101565.66;4991705;28;20030;-85
2023/04/06 02:28:58;;;;;;;20.77;11.00;;;;;;;1.91;88.35;101570.88;4991063;28;20030;-85
2023/04/06 02:31:24;;;;;;;20.43;10.57;;;;;;;1.90;88.62;101562.13;4992588;28;20045;-85
2023/04/06 02:33:49;;;;;;;24.13;11.02;;;;;;;1.94;88.34;101554.63;4992685;28;20142;-85
2023/04/06 02:36:15;;;;;;;19.93;10.67;;;;;;;2.00;88.38;101553.13;4991539;28;20037;-85
2023/04/06 02:38:40;;;;;;;18.30;9.87;;;;;;;2.01;88.24;101554.75;4991079;28;20467;-85
2023/04/06 02:41:05;;;;;;;20.63;9.87;;;;;;;2.04;87.33;101551.72;4991150;28;20033;-85
2023/04/06 02:43:32;;;;;;;23.40;11.00;;;;;;;2.01;87.98;101541.53;4990167;28;20293;-85
2023/04/06 02:45:57;;;;;;;20.17;10.23;;;;;;;2.07;87.56;101543.44;4992872;28;20038;-85
2023/04/06 02:48:23;;;;;;;22.80;11.63;;;;;;;2.07;88.10;101540.78;4991425;28;20305;-85
2023/04/06 02:50:49;;;;;;;20.57;11.37;;;;;;;2.05;87.51;101532.22;4992501;28;20034;-85
2023/04/06 02:53:14;;;;;;;21.33;10.67;;;;;;;2.07;88.01;101535.50;4975562;28;20377;-85
2023/04/06 02:55:39;;;;;;;24.42;12.02;;;;;;;2.07;88.52;101530.22;4990330;28;20026;-85
2023/04/06 02:58:05;;;;;;;23.63;10.90;;;;;;;2.06;88.16;101532.03;4990845;28;20116;-85
2023/04/06 03:00:30;;;;;;;24.47;11.87;;;;;;;2.04;88.91;101525.28;4990601;28;20023;-85
2023/04/06 03:02:55;;;;;;;25.17;11.57;;;;;;;2.06;89.63;101520.63;4973412;28;20048;-85
2023/04/06 03:05:21;;;;;;;27.45;11.55;;;;;;;2.08;89.40;101521.28;4991435;28;20383;-85
2023/04/06 03:07:47;;;;;;;22.80;11.37;;;;;;;2.09;89.61;101520.28;4991671;28;20076;-85
2023/04/06 03:10:12;;;;;;;26.90;12.25;;;;;;;2.11;88.86;101521.72;4972159;28;20065;-86
2023/04/06 03:12:38;;;;;;;23.20;11.60;;;;;;;2.12;88.58;101523.34;4991637;28;20050;-85
2023/04/06 03:15:04;;;;;;;24.07;11.93;;;;;;;2.11;88.96;101515.63;4991023;28;20045;-85
2023/04/06 03:17:29;;;;;;;23.88;12.63;;;;;;;2.15;88.88;101516.91;4989388;28;20105;-86
2023/04/06 03:19:55;;;;;;;24.73;11.27;;;;;;;2.14;88.80;101515.25;4989550;28;20125;-85
2023/04/06 03:22:20;;;;;;;26.73;11.90;;;;;;;2.10;89.11;101508.69;4991691;28;20026;-85
2023/04/06 03:24:46;;;;;;;21.40;11.70;;;;;;;2.12;89.99;101515.44;4992405;28;20054;-85
2023/04/06 03:27:11;;;;;;;22.37;11.80;;;;;;;2.09;89.19;101513.19;4991601;28;20031;-85
2023/04/06 03:29:36;;;;;;;26.20;12.60;;;;;;;2.09;90.12;101510.53;4990715;28;20027;-85
2023/04/06 03:32:03;;;;;;;25.30;11.93;;;;;;;2.07;89.83;101512.53;4991578;28;20034;-85
2023/04/06 03:34:30;;;;;;;24.83;12.53;;;;;;;2.05;90.07;101511.06;4972709;28;20301;-85
2023/04/06 03:36:56;;;;;;;21.58;11.52;;;;;;;2.07;90.01;101503.78;4991386;28;20026;-85
2023/04/06 03:39:22;;;;;;;25.52;12.55;;;;;;;2.03;89.21;101505.97;4991426;28;20023;-85
2023/04/06 03:41:47;;;;;;;22.77;11.97;;;;;;;2.02;89.41;101509.63;4973519;28;20505;-85
2023/04/06 03:44:12;;;;;;;24.95;12.55;;;;;;;1.98;89.23;101505.69;4991569;28;20106;-85
2023/04/06 03:46:38;;;;;;;26.23;12.17;;;;;;;1.94;90.15;101497.31;4988045;28;20422;-85
2023/04/06 03:49:05;;;;;;;27.23;12.63;;;;;;;1.92;90.62;101494.03;4990822;28;20035;-85
2023/04/06 03:51:33;;;;;;;20.92;11.50;;;;;;;1.97;90.23;101501.41;4973305;28;20534;-86
2023/04/06 03:53:58;;;;;;;24.90;12.43;;;;;;;1.96;90.11;101502.41;4991689;28;20061;-86
2023/04/06 03:56:23;;;;;;;22.63;12.87;;;;;;;1.95;90.14;101498.13;4989541;28;20689;-85
2023/04/06 03:58:50;;;;;;;22.83;12.77;;;;;;;1.96;90.63;101495.31;4971625;28;20050;-88
2023/04/06 04:01:18;;;;;;;23.20;12.18;;;;;;;1.96;90.32;101492.66;4977628;28;20046;-88
2023/04/06 04:03:44;;;;;;;24.38;12.75;;;;;;;2.00;90.53;101497.59;4989294;28;20026;-87
2023/04/06 04:06:09;;;;;;;24.50;12.47;;;;;;;2.00;89.89;101492.31;4973776;28;20035;-91
2023/04/06 04:08:35;;;;;;;23.57;11.67;;;;;;;1.94;90.55;101488.56;4994058;28;20308;-90
2023/04/06 04:11:01;;;;;;;26.80;13.03;;;;;;;1.96;90.73;101492.66;4982542;28;20538;-90
2023/04/06 04:13:27;;;;;;;30.08;13.43;;;;;;;2.00;90.47;101500.25;4977393;28;20023;-90
2023/04/06 04:15:52;;;;;;;29.07;12.80;;;;;;;2.02;90.88;101503.50;4978329;28;20092;-90
2023/04/06 04:18:18;;;;;;;25.25;13.30;;;;;;;2.02;90.67;101495.56;4996214;28;20039;-89
2023/04/06 04:20:44;;;;;;;26.17;13.10;;;;;;;2.07;90.08;101507.25;4997366;28;20050;-88
2023/04/06 04:23:09;;;;;;;28.38;13.38;;;;;;;2.08;89.91;101500.13;4997645;28;20033;-91
2023/04/06 04:25:38;;;;;;;29.63;13.50;;;;;;;2.06;90.33;101499.47;5012954;28;20034;-88
2023/04/06 04:28:04;;;;;;;25.05;12.30;;;;;;;2.08;90.02;101500.97;5018597;28;20061;-88
2023/04/06 04:30:31;;;;;;;26.33;13.77;;;;;;;2.05;89.74;101497.84;5018495;28;20027;-89
2023/04/06 04:32:56;;;;;;;24.48;13.13;;;;;;;2.09;90.20;101496.47;5018128;28;20031;-88
2023/04/06 04:35:21;;;;;;;25.20;13.60;;;;;;;2.11;90.36;101499.75;5019876;28;20023;-89
2023/04/06 04:37:47;;;;;;;23.47;12.57;;;;;;;2.11;89.56;101495.28;5005270;28;20089;-88
2023/04/06 04:40:12;;;;;;;27.73;14.00;;;;;;;2.10;89.50;101495.47;4993514;28;20054;-89
2023/04/06 04:42:37;;;;;;;26.17;13.05;;;;;;;2.07;89.75;101490.53;4978171;28;20030;-89
2023/04/06 04:45:03;;;;;;;23.23;13.30;;;;;;;2.12;90.27;101491.63;4978883;28;20037;-89
2023/04/06 04:47:28;;;;;;;24.87;13.07;;;;;;;2.13;90.53;101489.81;4977425;28;20019;-88
2023/04/06 04:49:54;;;;;;;27.13;12.73;;;;;;;2.08;89.88;101484.25;4977223;28;20054;-89
2023/04/06 04:52:19;;;;;;;30.40;13.50;;;;;;;2.09;90.20;101485.91;4978060;28;20087;-90
2023/04/06 04:54:46;;;;;;;27.77;12.90;;;;;;;2.09;90.10;101484.09;4993334;28;20282;-89
2023/04/06 04:57:12;;;;;;;29.20;13.13;;;;;;;2.17;90.29;101484.97;4995634;28;20046;-89
2023/04/06 04:59:37;;;;;;;27.83;13.53;;;;;;;2.24;90.10;101491.97;4993451;28;20042;-89
2023/04/06 05:02:02;;;;;;;27.93;13.13;;;;;;;2.32;89.43;101498.19;4983470;28;20061;-88
2023/04/06 05:04:28;;;;;;;28.87;13.67;;;;;;;2.35;88.64;101493.31;4991702;28;20050;-88
2023/04/06 05:07:07;;;;;;;23.17;13.03;;;;;;;2.40;88.36;101487.47;5002113;28;20093;-87
2023/04/06 05:09:33;;;;;;;27.33;13.50;;;;;;;2.38;87.80;101489.47;5014972;28;20022;-89
2023/04/06 05:12:00;;;;;;;29.90;13.18;;;;;;;2.41;87.86;101489.09;5011977;28;20045;-87
2023/04/06 05:14:25;;;;;;;28.10;13.23;;;;;;;2.39;87.20;101486.66;4995064;28;20069;-87
2023/04/06 05:16:52;;;;;;;23.53;12.73;;;;;;;2.41;87.38;101481.16;5001017;28;20298;-90
2023/04/06 05:19:17;;;;;;;23.52;12.38;;;;;;;2.42;87.78;101486.28;4997655;28;20474;-87
2023/04/06 05:21:43;;;;;;;22.57;12.23;;;;;;;2.48;87.80;101491.81;4994645;28;20038;-89
2023/04/06 05:24:08;;;;;;;24.47;11.87;;;;;;;2.49;87.65;101491.66;4976135;28;20722;-88
2023/04/06 05:26:38;;;;;;;23.77;12.33;;;;;;;2.46;88.06;101470.84;4994120;28;20042;-90
2023/04/06 05:29:03;;;;;;;25.88;13.05;;;;;;;2.56;87.95;101489.88;4994469;28;20038;-92
2023/04/06 05:31:30;;;;;;;25.47;13.40;;;;;;;2.57;87.67;101480.13;4997330;28;20093;-94
2023/04/06 05:33:56;;;;;;;26.10;14.25;;;;;;;2.63;87.53;101492.63;4998730;28;20022;-92
2023/04/06 05:36:23;;;;;;;28.55;14.23;;;;;;;2.69;87.45;101489.19;4995663;28;20045;-91
2023/04/06 05:38:50;;;;;;;25.88;13.82;;;;;;;2.76;87.63;101489.25;4994807;28;20197;-94
2023/04/06 05:41:15;;;;;;;24.52;12.65;;;;;;;2.80;87.11;101481.78;4995380;28;20057;-93
2023/04/06 05:43:41;;;;;;;27.03;13.93;;;;;;;2.82;86.93;101482.41;4978135;28;20513;-93
2023/04/06 05:46:07;;;;;;;25.00;12.40;;;;;;;2.86;85.36;101481.81;4998927;28;20093;-94
2023/04/06 05:48:32;;;;;;;29.38;14.30;;;;;;;2.94;86.06;101472.09;5001723;28;20498;-93
2023/04/06 05:50:58;;;;;;;26.17;13.47;;;;;;;2.99;85.47;101478.47;4996962;28;20033;-93
2023/04/06 05:53:26;;;;;;;29.67;13.07;;;;;;;3.03;85.61;101484.22;4996762;28;20118;-94
2023/04/06 05:55:51;;;;;;;23.87;12.07;;;;;;;3.06;85.67;101475.88;4997964;28;20290;-94
2023/04/06 05:58:17;;;;;;;26.02;13.82;;;;;;;3.12;85.35;101484.88;4995737;28;20027;-92
2023/04/06 06:00:42;;;;;;;27.27;13.10;;;;;;;3.18;84.40;101489.44;4990491;28;20053;-94
2023/04/06 06:03:08;;;;;;;26.67;11.80;;;;;;;3.22;84.81;101481.91;4999837;28;20124;-94
2023/04/06 06:05:35;;;;;;;24.93;12.60;;;;;;;3.30;83.81;101487.88;4998802;28;20070;-95
2023/04/06 06:08:02;;;;;;;22.95;12.80;;;;;;;3.33;83.51;101476.91;5002026;28;20110;-96
2023/04/06 06:10:27;;;;;;;31.20;13.80;;;;;;;3.43;83.17;101473.91;5004693;28;20026;-95
2023/04/06 06:12:54;;;;;;;26.08;13.70;;;;;;;3.50;82.50;101481.91;5003937;28;20033;-96
2023/04/06 06:15:20;;;;;;;24.70;12.77;;;;;;;3.58;82.53;101480.94;4999401;28;20034;-95
2023/04/06 06:17:46;;;;;;;24.57;12.77;;;;;;;3.66;81.99;101483.41;5003011;28;20297;-94
2023/04/06 06:20:12;;;;;;;25.27;13.57;;;;;;;3.74;81.93;101480.59;5000965;28;20022;-92
2023/04/06 06:22:40;;;;;;;23.43;13.17;;;;;;;3.84;81.87;101488.19;5002666;28;20076;-91
2023/04/06 06:25:05;;;;;;;26.13;12.53;;;;;;;3.97;81.65;101484.81;5006454;28;20341;-94
2023/04/06 06:27:30;;;;;;;23.30;12.13;;;;;;;4.09;81.06;101483.22;5009077;28;20026;-90
2023/04/06 06:29:57;;;;;;;27.63;12.37;;;;;;;4.18;79.52;101483.06;4975849;28;20444;-91
2023/04/06 06:32:22;;;;;;;19.92;12.07;;;;;;;4.30;79.61;101483.28;4994277;28;20061;-91
2023/04/06 06:34:47;;;;;;;24.53;13.60;;;;;;;4.42;79.32;101489.66;4993466;28;20058;-93
2023/04/06 06:37:13;;;;;;;22.40;12.17;;;;;;;4.48;78.38;101482.72;4996035;28;20087;-91
2023/04/06 06:39:40;;;;;;;29.07;12.97;;;;;;;4.60;75.87;101496.22;5001742;28;20142;-91
2023/04/06 06:42:05;;;;;;;22.77;12.18;;;;;;;4.67;77.33;101497.03;4996109;28;20382;-92
2023/04/06 06:44:30;;;;;;;22.20;11.68;;;;;;;4.77;75.94;101496.66;4996050;28;20033;-90
2023/04/06 06:46:57;;;;;;;23.10;12.53;;;;;;;4.85;75.80;101497.25;4992183;28;20133;-94
2023/04/06 06:49:22;;;;;;;23.53;12.03;;;;;;;4.93;75.61;101495.44;5004466;28;20026;-91
2023/04/06 06:51:47;;;;;;;22.77;12.17;;;;;;;4.95;74.47;101491.56;5009833;28;20309;-93
2023/04/06 06:54:12;;;;;;;24.00;13.10;;;;;;;5.00;73.99;101493.63;5003710;28;20100;-92
2023/04/06 06:56:38;;;;;;;25.23;13.43;;;;;;;5.05;74.13;101490.34;4995652;28;20061;-93
2023/04/06 06:59:05;;;;;;;23.77;12.55;;;;;;;5.07;72.99;101491.75;4995600;28;20037;-92
2023/04/06 07:01:33;;;;;;;26.55;11.65;;;;;;;5.10;73.09;101485.25;4993974;28;20061;-92
2023/04/06 07:03:58;;;;;;;25.97;11.93;;;;;;;5.13;72.53;101475.00;4995525;28;20109;-93
2023/04/06 07:06:24;;;;;;;23.70;12.53;;;;;;;5.20;72.86;101482.19;4993942;28;20325;-93
2023/04/06 07:08:49;;;;;;;28.40;12.10;;;;;;;5.20;73.05;101480.31;4991745;28;20113;-96
2023/04/06 07:11:14;;;;;;;65.83;23.60;;;;;;;5.25;74.13;101483.19;4995249;28;20021;-91
2023/04/06 07:13:40;;;;;;;26.13;12.57;;;;;;;5.28;74.08;101485.44;4996931;28;20050;-93
2023/04/06 07:16:05;;;;;;;100.40;15.35;;;;;;;5.34;73.05;101486.44;5001648;28;20034;-91
2023/04/06 07:18:31;;;;;;;27.97;11.60;;;;;;;5.38;73.40;101481.53;5005046;28;20049;-91
2023/04/06 07:20:56;;;;;;;26.10;12.27;;;;;;;5.41;73.79;101481.94;5008350;28;20081;-93
2023/04/06 07:23:21;;;;;;;23.15;11.10;;;;;;;5.48;73.98;101470.47;5004230;28;20081;-95
2023/04/06 07:25:47;;;;;;;21.50;11.33;;;;;;;5.55;72.89;101472.09;4999907;28;20030;-91
2023/04/06 07:28:12;;;;;;;40.73;13.47;;;;;;;5.65;72.32;101470.84;5005375;28;20042;-91
2023/04/06 07:30:38;;;;;;;23.93;11.43;;;;;;;5.70;71.45;101471.84;4981622;28;20011;-91
2023/04/06 07:33:05;;;;;;;20.07;11.67;;;;;;;5.77;72.99;101471.84;5013576;28;20068;-96
2023/04/06 07:35:30;;;;;;;25.10;11.35;;;;;;;5.79;70.83;101472.44;5016890;28;20006;-96
2023/04/06 07:37:56;;;;;;;24.52;11.85;;;;;;;5.86;71.17;101478.53;5017259;28;20062;-94
2023/04/06 07:40:21;;;;;;;20.27;11.33;;;;;;;5.97;70.82;101470.94;5019023;28;20034;-96
2023/04/06 07:42:47;;;;;;;22.17;11.43;;;;;;;6.02;70.04;101465.84;5013824;28;20061;-96
2023/04/06 07:45:12;;;;;;;20.50;11.00;;;;;;;6.16;69.67;101464.75;5020332;28;20023;-96
2023/04/06 07:47:39;;;;;;;21.13;10.80;;;;;;;6.25;69.34;101461.81;5003682;28;20018;-96
2023/04/06 07:50:05;;;;;;;24.73;12.65;;;;;;;6.38;68.01;101464.44;5020241;28;20022;-96
2023/04/06 07:52:31;;;;;;;22.73;11.90;;;;;;;6.39;68.19;101460.72;5018424;28;20114;-94
2023/04/06 07:54:57;;;;;;;22.88;11.07;;;;;;;6.42;67.46;101460.28;5020603;28;20034;-96
2023/04/06 07:57:23;;;;;;;20.73;11.32;;;;;;;6.55;68.55;101463.94;5022118;28;20026;-96
2023/04/06 07:59:49;;;;;;;23.27;11.30;;;;;;;6.66;67.55;101466.69;5021547;28;20065;-96
2023/04/06 08:02:14;;;;;;;20.90;10.57;;;;;;;6.75;67.25;101463.78;5021653;28;20038;-96
2023/04/06 08:04:39;;;;;;;19.90;10.27;;;;;;;6.94;66.46;101476.13;5017501;28;20027;-96
2023/04/06 08:07:05;;;;;;;22.63;10.50;;;;;;;7.03;65.55;101465.22;5019297;28;20018;-94
2023/04/06 08:09:30;;;;;;;25.07;12.53;;;;;;;7.01;65.25;101472.59;5019163;28;20034;-96
2023/04/06 08:11:56;;;;;;;22.77;12.73;;;;;;;6.99;65.67;101474.66;5020258;28;20026;-96
2023/04/06 08:14:21;;;;;;;24.67;11.70;;;;;;;6.96;65.26;101465.25;5019729;28;20022;-96
2023/04/06 08:16:46;;;;;;;20.83;11.47;;;;;;;7.04;65.22;101472.97;5004928;28;20023;-91
2023/04/06 08:19:13;;;;;;;20.47;11.00;;;;;;;7.17;65.33;101474.72;4995538;28;20030;-96
2023/04/06 08:21:42;;;;;;;26.15;12.18;;;;;;;7.28;65.20;101473.97;5011604;28;20038;-94
2023/04/06 08:24:07;;;;;;;20.70;11.80;;;;;;;7.35;64.51;101468.59;5007547;28;20068;-96
2023/04/06 08:26:33;;;;;;;27.30;11.27;;;;;;;7.42;64.86;101473.84;5019500;28;20030;-96
2023/04/06 08:28:58;;;;;;;26.37;12.30;;;;;;;7.58;64.70;101472.47;4995304;28;20057;-95
2023/04/06 08:31:25;;;;;;;24.03;12.63;;;;;;;7.75;63.95;101477.19;5003976;28;20465;-95
2023/04/06 08:33:50;;;;;;;22.73;11.77;;;;;;;8.01;63.69;101476.91;4985801;28;20054;-94
2023/04/06 08:36:18;;;;;;;21.17;11.30;;;;;;;8.19;63.27;101478.72;4983606;28;20027;-94
2023/04/06 08:38:44;;;;;;;24.75;11.65;;;;;;;8.29;62.90;101477.38;4997786;28;20501;-96
2023/04/06 08:41:11;;;;;;;22.20;11.95;;;;;;;8.36;61.73;101482.63;4999978;28;20090;-93
2023/04/06 08:43:44;;;;;;;21.88;11.90;;;;;;;8.42;62.07;101485.19;5001299;28;20026;-96
2023/04/06 08:46:11;;;;;;;21.85;11.77;;;;;;;8.44;60.97;101477.78;4997112;28;20031;-94
2023/04/06 08:48:38;;;;;;;25.70;12.02;;;;;;;8.49;61.26;101482.47;5014142;28;20090;-94
2023/04/06 08:51:03;;;;;;;23.67;11.68;;;;;;;8.63;61.78;101488.44;5015755;28;20026;-92
2023/04/06 08:53:29;;;;;;;25.80;11.37;;;;;;;8.81;60.36;101481.38;5015997;28;20114;-93
2023/04/06 08:55:57;;;;;;;24.10;11.73;;;;;;;8.78;60.45;101475.44;5016218;28;20026;-93
2023/04/06 08:58:23;;;;;;;21.00;12.07;;;;;;;8.92;61.33;101492.09;5017572;28;20094;-92
2023/04/06 09:00:50;;;;;;;23.00;11.05;;;;;;;9.02;60.62;101483.50;5004970;28;20065;-92
2023/04/06 09:03:16;;;;;;;22.10;11.57;;;;;;;9.17;61.34;101488.38;4995146;28;20035;-94
2023/04/06 09:05:42;;;;;;;22.33;11.32;;;;;;;9.35;60.61;101483.97;4978867;28;20552;-92
2023/04/06 09:08:08;;;;;;;20.75;12.18;;;;;;;9.43;60.89;101497.00;4989062;28;20084;-92
2023/04/06 09:10:34;;;;;;;18.90;10.70;;;;;;;9.60;61.45;101496.28;4998865;28;20105;-91
2023/04/06 09:13:04;;;;;;;22.65;12.07;;;;;;;9.76;61.59;101490.19;4999991;28;20172;-94
2023/04/06 09:15:29;;;;;;;21.00;11.75;;;;;;;9.82;60.05;101486.59;4999660;28;20090;-90
2023/04/06 09:17:55;;;;;;;28.17;12.47;;;;;;;9.96;61.31;101495.16;5000034;28;20064;-92
2023/04/06 09:20:28;;;;;;;24.03;11.53;;;;;;;10.06;61.90;101489.19;5002339;28;20042;-94
2023/04/06 09:22:55;;;;;;;23.00;11.55;;;;;;;10.13;61.91;101494.44;5014817;28;20022;-94
2023/04/06 09:25:23;;;;;;;23.23;11.82;;;;;;;10.17;62.24;101494.75;5019751;28;20018;-94
2023/04/06 09:27:58;;;;;;;22.17;11.98;;;;;;;10.23;62.21;101488.44;5002607;28;20090;-96
2023/04/06 09:30:24;;;;;;;23.58;11.80;;;;;;;10.44;62.75;101493.13;5014585;28;20054;-92
2023/04/06 09:32:52;;;;;;;21.02;11.32;;;;;;;10.63;63.96;101492.13;5013498;28;20528;-93
2023/04/06 09:35:21;;;;;;;21.63;11.63;;;;;;;10.71;64.50;101495.22;5006052;28;20082;-93
2023/04/06 09:37:48;;;;;;;21.52;11.25;;;;;;;10.67;64.92;101485.25;5013218;28;20032;-92
2023/04/06 09:40:14;;;;;;;21.63;12.38;;;;;;;10.42;65.13;101484.53;5011824;28;20027;-94
2023/04/06 09:42:46;;;;;;;26.25;11.60;;;;;;;10.36;65.54;101490.84;5011352;28;20030;-94
2023/04/06 09:45:12;;;;;;;23.52;11.30;;;;;;;10.28;66.24;101485.84;5018073;28;20026;-92
2023/04/06 09:47:40;;;;;;;20.20;10.70;;;;;;;10.07;70.00;101482.78;5019020;28;20045;-94
2023/04/06 09:50:07;;;;;;;23.33;11.40;;;;;;;10.09;71.43;101483.34;5018964;28;20014;-94
2023/04/06 09:52:42;;;;;;;22.60;11.93;;;;;;;10.23;71.79;101499.13;5017696;28;20015;-94
2023/04/06 09:55:08;;;;;;;19.60;11.00;;;;;;;10.40;71.98;101492.03;5010399;28;20118;-95
2023/04/06 09:58:12;;;;;;;20.13;10.93;;;;;;;10.50;72.23;101488.69;5015775;28;20070;-93
2023/04/06 10:00:54;;;;;;;16.88;10.48;;;;;;;10.37;70.18;101488.97;5016191;28;20023;-94
2023/04/06 10:03:23;;;;;;;16.42;10.10;;;;;;;10.04;71.23;101496.66;5008501;28;20038;-95
2023/04/06 10:06:02;;;;;;;17.48;10.52;;;;;;;10.01;72.99;101483.75;5015798;28;20018;-93
2023/04/06 10:08:28;;;;;;;18.30;9.82;;;;;;;9.92;74.75;101499.38;5026624;28;20026;-93
2023/04/06 10:10:56;;;;;;;20.40;10.30;;;;;;;9.96;77.79;101491.66;5028493;28;20030;-91
2023/04/06 10:13:23;;;;;;;18.75;10.00;;;;;;;9.78;77.38;101504.16;5012745;28;20022;-95
2023/04/06 10:15:50;;;;;;;16.33;9.65;;;;;;;9.70;78.23;101507.19;5003083;28;20038;-93
2023/04/06 10:18:16;;;;;;;19.85;9.73;;;;;;;9.50;81.00;101503.03;5005561;28;20045;-96
2023/04/06 10:21:03;;;;;;;16.70;9.85;;;;;;;9.36;84.58;101507.81;5005557;28;20090;-94
2023/04/06 10:23:53;;;;;;;18.05;8.48;;;;;;;9.20;86.00;101506.63;5005027;28;20113;-93
2023/04/06 10:26:23;;;;;;;13.53;8.10;;;;;;;9.38;86.53;101512.91;4994713;28;20057;-96
2023/04/06 10:47:00;;;;;;;13.93;7.70;;;;;;;9.22;88.93;101488.50;5228909;22;20083;-96
2023/04/06 10:49:27;;;;;;;12.27;8.32;;;;;;;9.21;88.55;101492.22;5046032;28;20527;-96
2023/04/06 10:54:29;;;;;;;11.50;6.97;;;;;;;9.13;93.12;101497.09;5362145;22;20312;-96
2023/04/06 10:56:56;;;;;;;13.02;7.03;;;;;;;8.80;93.62;101483.22;5057580;28;20085;-94
2023/04/06 10:59:22;;;;;;;9.60;6.55;;;;;;;8.54;95.12;101474.59;5044172;28;20029;-96
2023/04/06 11:01:48;;;;;;;11.73;6.45;;;;;;;8.61;98.10;101493.19;5051500;28;20049;-96
2023/04/06 11:04:18;;;;;;;9.43;6.18;;;;;;;8.37;98.11;101462.88;5043439;28;20036;-96
2023/04/06 11:07:01;;;;;;;12.23;6.13;;;;;;;8.29;99.71;101464.03;5040392;28;20033;-96
2023/04/06 11:09:27;;;;;;;9.63;6.28;;;;;;;8.21;98.37;101454.47;5044542;28;20021;-96
2023/04/06 11:11:53;;;;;;;11.13;6.15;;;;;;;8.32;100.00;101472.38;5041839;28;20048;-96
2023/04/06 11:14:19;;;;;;;8.93;5.50;;;;;;;8.16;100.00;101457.00;5046634;28;20453;-96
2023/04/06 11:16:50;;;;;;;10.27;5.45;;;;;;;8.23;100.00;101456.91;5052336;28;20040;-96
2023/04/06 11:19:16;;;;;;;11.68;5.40;;;;;;;8.27;100.00;101471.44;5041902;28;20022;-95
2023/04/06 11:21:48;;;;;;;9.90;5.35;;;;;;;8.25;100.00;101468.19;5028678;28;20105;-94
2023/04/06 11:24:21;;;;;;;8.65;5.53;;;;;;;8.04;100.00;101465.75;5016657;28;20029;-94
2023/04/06 11:26:55;;;;;;;8.33;5.53;;;;;;;7.95;100.00;101477.78;5014211;28;20481;-94
2023/04/06 11:29:23;;;;;;;7.67;5.13;;;;;;;7.87;100.00;101481.56;5033928;28;20799;-94
2023/04/06 11:31:51;;;;;;;8.18;5.25;;;;;;;8.04;100.00;101472.97;5034038;28;20263;-94
2023/04/06 11:34:18;;;;;;;10.45;5.22;;;;;;;8.16;100.00;101460.47;5034466;28;20484;-94
2023/04/06 11:36:45;;;;;;;9.00;5.30;;;;;;;8.32;100.00;101445.69;5034480;28;20026;-94